sensor_id;sensor_type;location;lat;lon;timestamp;pressure;altitude;pressure_sealevel;temperature;humidity
60345;BME280;46188;52.324;8.032;2023-05-11T00:01:26;100289.28;;;13.59;100.00
60345;BME280;46188;52.324;8.032;2023-05-11T00:03:51;100284.00;;;13.58;100.00
60345;BME280;46188;52.324;8.032;2023-05-11T00:06:16;100284.84;;;13.57;100.00
60345;BME280;46188;52.324;8.032;2023-05-11T00:08:41;100279.56;;;13.55;100.00
60345;BME280;46188;52.324;8.032;2023-05-11T00:11:07;100284.00;;;13.56;100.00
60345;BME280;46188;52.324;8.032;2023-05-11T00:13:33;100276.03;;;13.59;100.00
60345;BME280;46188;52.324;8.032;2023-05-11T00:15:58;100281.31;;;13.62;100.00
60345;BME280;46188;52.324;8.032;2023-05-11T00:18:23;100275.16;;;13.60;100.00
60345;BME280;46188;52.324;8.032;2023-05-11T00:20:49;100279.56;;;13.60;100.00
60345;BME280;46188;52.324;8.032;2023-05-11T00:23:14;100273.38;;;13.62;100.00
60345;BME280;46188;52.324;8.032;2023-05-11T00:25:39;100270.72;;;13.64;100.00
60345;BME280;46188;52.324;8.032;2023-05-11T00:28:05;100278.69;;;13.59;100.00
60345;BME280;46188;52.324;8.032;2023-05-11T00:30:31;100271.63;;;13.55;100.00
60345;BME280;46188;52.324;8.032;2023-05-11T00:32:57;100269.88;;;13.53;100.00
60345;BME280;46188;52.324;8.032;2023-05-11T00:35:22;100276.09;;;13.45;100.00
60345;BME280;46188;52.324;8.032;2023-05-11T00:37:47;100272.59;;;13.37;100.00
60345;BME280;46188;52.324;8.032;2023-05-11T00:40:13;100267.31;;;13.34;100.00
60345;BME280;46188;52.324;8.032;2023-05-11T00:42:38;100268.19;;;13.42;100.00
60345;BME280;46188;52.324;8.032;2023-05-11T00:45:04;100274.34;;;13.37;100.00
60345;BME280;46188;52.324;8.032;2023-05-11T00:47:29;100272.59;;;13.37;100.00
60345;BME280;46188;52.324;8.032;2023-05-11T00:49:54;100268.19;;;13.38;100.00
60345;BME280;46188;52.324;8.032;2023-05-11T00:52:20;100264.63;;;13.40;100.00
60345;BME280;46188;52.324;8.032;2023-05-11T00:54:46;100266.41;;;13.43;100.00
60345;BME280;46188;52.324;8.032;2023-05-11T00:57:12;100261.97;;;13.43;100.00
60345;BME280;46188;52.324;8.032;2023-05-11T00:59:38;100261.97;;;13.43;100.00
60345;BME280;46188;52.324;8.032;2023-05-11T01:02:04;100264.59;;;13.48;100.00
60345;BME280;46188;52.324;8.032;2023-05-11T01:04:30;100264.59;;;13.48;100.00
60345;BME280;46188;52.324;8.032;2023-05-11T01:07:16;100261.09;;;13.49;100.00
60345;BME280;46188;52.324;8.032;2023-05-11T01:09:52;100261.09;;;13.49;100.00
60345;BME280;46188;52.324;8.032;2023-05-11T01:12:35;100261.09;;;13.46;100.00
60345;BME280;46188;52.324;8.032;2023-05-11T01:15:13;100260.22;;;13.45;100.00
60345;BME280;46188;52.324;8.032;2023-05-11T01:17:52;100261.97;;;13.48;100.00
60345;BME280;46188;52.324;8.032;2023-05-11T01:20:25;100266.38;;;13.46;100.00
60345;BME280;46188;52.324;8.032;2023-05-11T01:25:52;100275.19;;;13.50;100.00
60345;BME280;46188;52.324;8.032;2023-05-11T01:31:25;100270.81;;;13.45;100.00
60345;BME280;46188;52.324;8.032;2023-05-11T01:34:00;100267.25;;;13.45;100.00
60345;BME280;46188;52.324;8.032;2023-05-11T01:36:52;100274.31;;;13.47;100.00
60345;BME280;46188;52.324;8.032;2023-05-11T01:39:21;100269.03;;;13.49;100.00
60345;BME280;46188;52.324;8.032;2023-05-11T01:41:51;100280.50;;;13.48;100.00
60345;BME280;46188;52.324;8.032;2023-05-11T01:44:18;100276.06;;;13.47;100.00
60345;BME280;46188;52.324;8.032;2023-05-11T01:46:45;100274.34;;;13.44;100.00
60345;BME280;46188;52.324;8.032;2023-05-11T01:49:12;100267.28;;;13.42;100.00
60345;BME280;46188;52.324;8.032;2023-05-11T01:51:39;100279.63;;;13.41;100.00
60345;BME280;46188;52.324;8.032;2023-05-11T01:54:07;100274.34;;;13.43;100.00
60345;BME280;46188;52.324;8.032;2023-05-11T01:56:34;100275.22;;;13.45;100.00
60345;BME280;46188;52.324;8.032;2023-05-11T01:58:59;100281.41;;;13.44;100.00
60345;BME280;46188;52.324;8.032;2023-05-11T02:01:26;100273.47;;;13.44;100.00
60345;BME280;46188;52.324;8.032;2023-05-11T02:03:53;100277.84;;;13.43;100.00
60345;BME280;46188;52.324;8.032;2023-05-11T02:06:21;100283.16;;;13.43;100.00
60345;BME280;46188;52.324;8.032;2023-05-11T02:08:49;100280.50;;;13.42;100.00
60345;BME280;46188;52.324;8.032;2023-05-11T02:11:14;100281.41;;;13.42;100.00
60345;BME280;46188;52.324;8.032;2023-05-11T02:13:42;100281.41;;;13.44;100.00
60345;BME280;46188;52.324;8.032;2023-05-11T02:16:09;100275.22;;;13.42;100.00
60345;BME280;46188;52.324;8.032;2023-05-11T02:18:37;100284.94;;;13.44;100.00
60345;BME280;46188;52.324;8.032;2023-05-11T02:21:04;100282.28;;;13.46;100.00
60345;BME280;46188;52.324;8.032;2023-05-11T02:23:31;100284.00;;;13.47;100.00
60345;BME280;46188;52.324;8.032;2023-05-11T02:25:57;100281.38;;;13.48;100.00
60345;BME280;46188;52.324;8.032;2023-05-11T02:28:23;100277.84;;;13.45;100.00
60345;BME280;46188;52.324;8.032;2023-05-11T02:30:53;100278.75;;;13.45;100.00
60345;BME280;46188;52.324;8.032;2023-05-11T02:33:24;100281.41;;;13.44;100.00
60345;BME280;46188;52.324;8.032;2023-05-11T02:35:50;100277.00;;;13.43;100.00
60345;BME280;46188;52.324;8.032;2023-05-11T02:38:18;100287.56;;;13.46;100.00
60345;BME280;46188;52.324;8.032;2023-05-11T02:40:49;100284.06;;;13.45;100.00
60345;BME280;46188;52.324;8.032;2023-05-11T02:43:20;100284.06;;;13.45;100.00
60345;BME280;46188;52.324;8.032;2023-05-11T02:45:49;100283.16;;;13.45;100.00
60345;BME280;46188;52.324;8.032;2023-05-11T02:48:25;100291.09;;;13.45;100.00
60345;BME280;46188;52.324;8.032;2023-05-11T02:50:54;100284.94;;;13.44;100.00
60345;BME280;46188;52.324;8.032;2023-05-11T02:53:21;100286.69;;;13.44;100.00
60345;BME280;46188;52.324;8.032;2023-05-11T02:55:49;100287.56;;;13.43;100.00
60345;BME280;46188;52.324;8.032;2023-05-11T02:58:15;100284.94;;;13.43;100.00
60345;BME280;46188;52.324;8.032;2023-05-11T03:00:40;100285.81;;;13.40;100.00
60345;BME280;46188;52.324;8.032;2023-05-11T03:03:06;100289.34;;;13.41;100.00
60345;BME280;46188;52.324;8.032;2023-05-11T03:05:31;100289.34;;;13.41;100.00
60345;BME280;46188;52.324;8.032;2023-05-11T03:07:57;100291.09;;;13.40;100.00
60345;BME280;46188;52.324;8.032;2023-05-11T03:10:25;100292.00;;;13.42;100.00
60345;BME280;46188;52.324;8.032;2023-05-11T03:12:51;100292.00;;;13.41;100.00
60345;BME280;46188;52.324;8.032;2023-05-11T03:15:16;100291.13;;;13.37;100.00
60345;BME280;46188;52.324;8.032;2023-05-11T03:17:42;100285.84;;;13.34;100.00
60345;BME280;46188;52.324;8.032;2023-05-11T03:20:08;100291.13;;;13.28;100.00
60345;BME280;46188;52.324;8.032;2023-05-11T03:22:34;100290.25;;;13.31;100.00
60345;BME280;46188;52.324;8.032;2023-05-11T03:25:02;100288.50;;;13.34;100.00
60345;BME280;46188;52.324;8.032;2023-05-11T03:27:28;100285.84;;;13.34;100.00
60345;BME280;46188;52.324;8.032;2023-05-11T03:29:54;100284.94;;;13.34;100.00
60345;BME280;46188;52.324;8.032;2023-05-11T03:32:21;100285.84;;;13.36;100.00
60345;BME280;46188;52.324;8.032;2023-05-11T03:34:46;100284.06;;;13.36;100.00
60345;BME280;46188;52.324;8.032;2023-05-11T03:37:12;100284.06;;;13.38;100.00
60345;BME280;46188;52.324;8.032;2023-05-11T03:39:38;100280.56;;;13.37;100.00
60345;BME280;46188;52.324;8.032;2023-05-11T03:42:05;100284.94;;;13.37;100.00
60345;BME280;46188;52.324;8.032;2023-05-11T03:44:32;100284.94;;;13.38;100.00
60345;BME280;46188;52.324;8.032;2023-05-11T03:46:58;100290.25;;;13.37;100.00
60345;BME280;46188;52.324;8.032;2023-05-11T03:49:24;100280.56;;;13.36;100.00
60345;BME280;46188;52.324;8.032;2023-05-11T03:51:50;100275.25;;;13.36;100.00
60345;BME280;46188;52.324;8.032;2023-05-11T03:54:17;100271.72;;;13.37;100.00
60345;BME280;46188;52.324;8.032;2023-05-11T03:56:42;100266.41;;;13.34;100.00
60345;BME280;46188;52.324;8.032;2023-05-11T03:59:08;100272.59;;;13.29;100.00
60345;BME280;46188;52.324;8.032;2023-05-11T04:01:37;100271.72;;;13.27;100.00
60345;BME280;46188;52.324;8.032;2023-05-11T04:04:03;100277.00;;;13.31;100.00
60345;BME280;46188;52.324;8.032;2023-05-11T04:06:28;100277.88;;;13.29;100.00
60345;BME280;46188;52.324;8.032;2023-05-11T04:08:53;100277.00;;;13.31;100.00
60345;BME280;46188;52.324;8.032;2023-05-11T04:11:18;100277.00;;;13.34;100.00
60345;BME280;46188;52.324;8.032;2023-05-11T04:13:44;100283.22;;;13.33;100.00
60345;BME280;46188;52.324;8.032;2023-05-11T04:16:09;100277.00;;;13.31;100.00
60345;BME280;46188;52.324;8.032;2023-05-11T04:18:34;100281.44;;;13.33;100.00
60345;BME280;46188;52.324;8.032;2023-05-11T04:21:00;100280.56;;;13.34;100.00
60345;BME280;46188;52.324;8.032;2023-05-11T04:23:25;100282.31;;;13.34;100.00
60345;BME280;46188;52.324;8.032;2023-05-11T04:25:52;100281.41;;;13.30;100.00
60345;BME280;46188;52.324;8.032;2023-05-11T04:28:18;100284.06;;;13.35;100.00
60345;BME280;46188;52.324;8.032;2023-05-11T04:30:44;100278.78;;;13.35;100.00
60345;BME280;46188;52.324;8.032;2023-05-11T04:33:09;100291.16;;;13.36;100.00
60345;BME280;46188;52.324;8.032;2023-05-11T04:35:38;100284.06;;;13.38;100.00
60345;BME280;46188;52.324;8.032;2023-05-11T04:38:03;100284.06;;;13.36;100.00
60345;BME280;46188;52.324;8.032;2023-05-11T04:40:28;100284.06;;;13.33;100.00
60345;BME280;46188;52.324;8.032;2023-05-11T04:42:54;100292.00;;;13.28;100.00
60345;BME280;46188;52.324;8.032;2023-05-11T04:45:19;100295.56;;;13.24;100.00
60345;BME280;46188;52.324;8.032;2023-05-11T04:47:44;100290.28;;;13.14;100.00
60345;BME280;46188;52.324;8.032;2023-05-11T04:50:10;100301.75;;;13.06;100.00
60345;BME280;46188;52.324;8.032;2023-05-11T04:52:35;100293.81;;;13.14;100.00
60345;BME280;46188;52.324;8.032;2023-05-11T04:55:00;100299.13;;;13.05;100.00
60345;BME280;46188;52.324;8.032;2023-05-11T04:57:26;100307.94;;;13.05;100.00
60345;BME280;46188;52.324;8.032;2023-05-11T04:59:51;100312.34;;;13.06;100.00
60345;BME280;46188;52.324;8.032;2023-05-11T05:02:16;100302.63;;;13.05;100.00
60345;BME280;46188;52.324;8.032;2023-05-11T05:04:41;100306.19;;;13.04;100.00
60345;BME280;46188;52.324;8.032;2023-05-11T05:07:07;100304.41;;;13.00;100.00
60345;BME280;46188;52.324;8.032;2023-05-11T05:09:33;100309.72;;;12.94;100.00
60345;BME280;46188;52.324;8.032;2023-05-11T05:11:58;100313.25;;;12.93;100.00
60345;BME280;46188;52.324;8.032;2023-05-11T05:14:23;100316.78;;;12.92;100.00
60345;BME280;46188;52.324;8.032;2023-05-11T05:16:48;100322.06;;;12.92;100.00
60345;BME280;46188;52.324;8.032;2023-05-11T05:19:14;100321.19;;;12.88;100.00
60345;BME280;46188;52.324;8.032;2023-05-11T05:21:39;100322.97;;;12.88;100.00
60345;BME280;46188;52.324;8.032;2023-05-11T05:24:05;100324.75;;;12.84;100.00
60345;BME280;46188;52.324;8.032;2023-05-11T05:26:30;100322.94;;;12.74;100.00
60345;BME280;46188;52.324;8.032;2023-05-11T05:28:56;100327.38;;;12.69;100.00
60345;BME280;46188;52.324;8.032;2023-05-11T05:31:21;100325.59;;;12.71;100.00
60345;BME280;46188;52.324;8.032;2023-05-11T05:33:46;100330.00;;;12.69;100.00
60345;BME280;46188;52.324;8.032;2023-05-11T05:36:11;100327.38;;;12.72;100.00
60345;BME280;46188;52.324;8.032;2023-05-11T05:38:37;100330.00;;;12.70;100.00
60345;BME280;46188;52.324;8.032;2023-05-11T05:41:02;100335.31;;;12.72;100.00
60345;BME280;46188;52.324;8.032;2023-05-11T05:43:27;100333.53;;;12.72;100.00
60345;BME280;46188;52.324;8.032;2023-05-11T05:45:53;100339.72;;;12.68;100.00
60345;BME280;46188;52.324;8.032;2023-05-11T05:48:18;100345.91;;;12.63;100.00
60345;BME280;46188;52.324;8.032;2023-05-11T05:50:43;100346.78;;;12.63;100.00
60345;BME280;46188;52.324;8.032;2023-05-11T05:53:08;100352.94;;;12.62;100.00
60345;BME280;46188;52.324;8.032;2023-05-11T05:55:34;100350.28;;;12.61;100.00
60345;BME280;46188;52.324;8.032;2023-05-11T05:57:59;100351.19;;;12.57;100.00
60345;BME280;46188;52.324;8.032;2023-05-11T06:00:24;100359.13;;;12.60;100.00
60345;BME280;46188;52.324;8.032;2023-05-11T06:02:50;100354.69;;;12.59;100.00
60345;BME280;46188;52.324;8.032;2023-05-11T06:05:15;100361.75;;;12.55;100.00
60345;BME280;46188;52.324;8.032;2023-05-11T06:07:40;100361.75;;;12.57;100.00
60345;BME280;46188;52.324;8.032;2023-05-11T06:10:05;100362.63;;;12.48;100.00
60345;BME280;46188;52.324;8.032;2023-05-11T06:12:31;100359.97;;;12.46;100.00
60345;BME280;46188;52.324;8.032;2023-05-11T06:14:56;100356.44;;;12.47;100.00
60345;BME280;46188;52.324;8.032;2023-05-11T06:17:21;100357.31;;;12.52;100.00
60345;BME280;46188;52.324;8.032;2023-05-11T06:19:48;100354.69;;;12.55;100.00
60345;BME280;46188;52.324;8.032;2023-05-11T06:22:13;100359.97;;;12.57;100.00
60345;BME280;46188;52.324;8.032;2023-05-11T06:24:39;100364.41;;;12.57;100.00
60345;BME280;46188;52.324;8.032;2023-05-11T06:27:04;100365.28;;;12.60;100.00
60345;BME280;46188;52.324;8.032;2023-05-11T06:29:29;100365.28;;;12.62;100.00
60345;BME280;46188;52.324;8.032;2023-05-11T06:31:54;100365.28;;;12.62;100.00
60345;BME280;46188;52.324;8.032;2023-05-11T06:34:20;100369.69;;;12.61;100.00
60345;BME280;46188;52.324;8.032;2023-05-11T06:36:47;100370.56;;;12.57;100.00
60345;BME280;46188;52.324;8.032;2023-05-11T06:39:12;100368.78;;;12.58;100.00
60345;BME280;46188;52.324;8.032;2023-05-11T06:41:38;100373.22;;;12.60;100.00
60345;BME280;46188;52.324;8.032;2023-05-11T06:44:03;100373.22;;;12.65;100.00
60345;BME280;46188;52.324;8.032;2023-05-11T06:46:29;100374.97;;;12.64;100.00
60345;BME280;46188;52.324;8.032;2023-05-11T06:48:55;100369.69;;;12.70;100.00
60345;BME280;46188;52.324;8.032;2023-05-11T06:51:20;100382.06;;;12.74;100.00
60345;BME280;46188;52.324;8.032;2023-05-11T06:53:46;100372.34;;;12.75;100.00
60345;BME280;46188;52.324;8.032;2023-05-11T06:56:11;100377.63;;;12.75;100.00
60345;BME280;46188;52.324;8.032;2023-05-11T06:58:36;100367.03;;;12.75;100.00
60345;BME280;46188;52.324;8.032;2023-05-11T07:01:02;100378.50;;;12.79;100.00
60345;BME280;46188;52.324;8.032;2023-05-11T07:03:29;100375.00;;;12.84;100.00
60345;BME280;46188;52.324;8.032;2023-05-11T07:05:55;100374.09;;;12.87;100.00
60345;BME280;46188;52.324;8.032;2023-05-11T07:08:20;100382.03;;;12.87;100.00
60345;BME280;46188;52.324;8.032;2023-05-11T07:10:45;100383.81;;;12.89;100.00
60345;BME280;46188;52.324;8.032;2023-05-11T07:13:11;100382.03;;;12.90;100.00
60345;BME280;46188;52.324;8.032;2023-05-11T07:15:36;100382.91;;;12.92;100.00
60345;BME280;46188;52.324;8.032;2023-05-11T07:18:01;100387.34;;;12.91;100.00
60345;BME280;46188;52.324;8.032;2023-05-11T07:20:26;100382.03;;;12.93;100.00
60345;BME280;46188;52.324;8.032;2023-05-11T07:22:58;100383.81;;;12.92;100.00
60345;BME280;46188;52.324;8.032;2023-05-11T07:25:24;100385.56;;;13.00;100.00
60345;BME280;46188;52.324;8.032;2023-05-11T07:27:49;100380.28;;;13.04;100.00
60345;BME280;46188;52.324;8.032;2023-05-11T07:30:14;100384.69;;;13.07;100.00
60345;BME280;46188;52.324;8.032;2023-05-11T07:32:40;100386.47;;;13.11;100.00
60345;BME280;46188;52.324;8.032;2023-05-11T07:35:05;100382.91;;;13.15;100.00
60345;BME280;46188;52.324;8.032;2023-05-11T07:37:31;100387.31;;;13.13;100.00
60345;BME280;46188;52.324;8.032;2023-05-11T07:39:57;100394.41;;;13.13;100.00
60345;BME280;46188;52.324;8.032;2023-05-11T07:42:22;100383.81;;;13.14;100.00
60345;BME280;46188;52.324;8.032;2023-05-11T07:44:47;100390.84;;;13.15;100.00
60345;BME280;46188;52.324;8.032;2023-05-11T07:47:12;100391.72;;;13.17;100.00
60345;BME280;46188;52.324;8.032;2023-05-11T07:49:37;100398.78;;;13.21;100.00
60345;BME280;46188;52.324;8.032;2023-05-11T07:52:03;100397.00;;;13.23;100.00
60345;BME280;46188;52.324;8.032;2023-05-11T07:54:28;100393.50;;;13.24;100.00
60345;BME280;46188;52.324;8.032;2023-05-11T07:56:53;100398.78;;;13.24;100.00
60345;BME280;46188;52.324;8.032;2023-05-11T07:59:18;100401.44;;;13.26;100.00
60345;BME280;46188;52.324;8.032;2023-05-11T08:01:44;100398.78;;;13.18;100.00
60345;BME280;46188;52.324;8.032;2023-05-11T08:04:09;100394.38;;;13.17;100.00
60345;BME280;46188;52.324;8.032;2023-05-11T08:06:35;100394.38;;;13.17;100.00
60345;BME280;46188;52.324;8.032;2023-05-11T08:09:00;100397.03;;;13.14;100.00
60345;BME280;46188;52.324;8.032;2023-05-11T08:11:25;100397.00;;;13.19;100.00
60345;BME280;46188;52.324;8.032;2023-05-11T08:13:51;100400.56;;;13.22;100.00
60345;BME280;46188;52.324;8.032;2023-05-11T08:16:16;100400.53;;;13.25;100.00
60345;BME280;46188;52.324;8.032;2023-05-11T08:18:42;100400.56;;;13.22;100.00
60345;BME280;46188;52.324;8.032;2023-05-11T08:21:07;100405.84;;;13.30;100.00
60345;BME280;46188;52.324;8.032;2023-05-11T08:23:32;100404.09;;;13.40;100.00
60345;BME280;46188;52.324;8.032;2023-05-11T08:25:57;100404.09;;;13.43;100.00
60345;BME280;46188;52.324;8.032;2023-05-11T08:28:23;100405.81;;;13.53;100.00
60345;BME280;46188;52.324;8.032;2023-05-11T08:30:56;100403.16;;;13.62;100.00
60345;BME280;46188;52.324;8.032;2023-05-11T08:33:21;100402.25;;;13.76;100.00
60345;BME280;46188;52.324;8.032;2023-05-11T08:35:47;100410.19;;;13.80;100.00
60345;BME280;46188;52.324;8.032;2023-05-11T08:38:13;100409.31;;;13.75;100.00
60345;BME280;46188;52.324;8.032;2023-05-11T08:40:38;100405.78;;;13.70;100.00
60345;BME280;46188;52.324;8.032;2023-05-11T08:43:10;100410.19;;;13.74;100.00
60345;BME280;46188;52.324;8.032;2023-05-11T08:45:37;100406.63;;;13.81;100.00
60345;BME280;46188;52.324;8.032;2023-05-11T08:48:04;100408.41;;;13.81;100.00
60345;BME280;46188;52.324;8.032;2023-05-11T08:50:30;100408.41;;;13.72;100.00
60345;BME280;46188;52.324;8.032;2023-05-11T08:52:55;100415.50;;;13.68;100.00
60345;BME280;46188;52.324;8.032;2023-05-11T08:55:21;100413.72;;;13.70;100.00
60345;BME280;46188;52.324;8.032;2023-05-11T08:57:48;100408.47;;;13.62;100.00
60345;BME280;46188;52.324;8.032;2023-05-11T09:00:15;100416.41;;;13.67;100.00
60345;BME280;46188;52.324;8.032;2023-05-11T09:02:40;100418.16;;;13.68;100.00
60345;BME280;46188;52.324;8.032;2023-05-11T09:05:07;100416.41;;;13.58;100.00
60345;BME280;46188;52.324;8.032;2023-05-11T09:07:34;100416.41;;;13.59;100.00
60345;BME280;46188;52.324;8.032;2023-05-11T09:10:00;100421.72;;;13.56;100.00
60345;BME280;46188;52.324;8.032;2023-05-11T09:12:26;100422.59;;;13.61;100.00
60345;BME280;46188;52.324;8.032;2023-05-11T09:14:52;100425.22;;;13.61;100.00
60345;BME280;46188;52.324;8.032;2023-05-11T09:17:17;100424.34;;;13.61;100.00
60345;BME280;46188;52.324;8.032;2023-05-11T09:19:59;100424.34;;;13.59;100.00
60345;BME280;46188;52.324;8.032;2023-05-11T09:22:24;100415.53;;;13.60;100.00
60345;BME280;46188;52.324;8.032;2023-05-11T09:24:51;100424.34;;;13.61;100.00
60345;BME280;46188;52.324;8.032;2023-05-11T09:27:16;100421.66;;;13.72;100.00
60345;BME280;46188;52.324;8.032;2023-05-11T09:29:42;100412.78;;;13.85;100.00
60345;BME280;46188;52.324;8.032;2023-05-11T09:32:07;100417.22;;;13.84;100.00
60345;BME280;46188;52.324;8.032;2023-05-11T09:34:32;100413.66;;;13.93;100.00
60345;BME280;46188;52.324;8.032;2023-05-11T09:36:57;100420.69;;;14.05;100.00
60345;BME280;46188;52.324;8.032;2023-05-11T09:39:31;100422.34;;;14.29;100.00
60345;BME280;46188;52.324;8.032;2023-05-11T09:42:15;100419.69;;;14.29;100.00
60345;BME280;46188;52.324;8.032;2023-05-11T09:44:41;100415.19;;;14.42;100.00
60345;BME280;46188;52.324;8.032;2023-05-11T09:47:11;100415.13;;;14.59;100.00
60345;BME280;46188;52.324;8.032;2023-05-11T09:49:38;100414.19;;;14.66;100.00
60345;BME280;46188;52.324;8.032;2023-05-11T09:52:03;100421.25;;;14.67;100.00
60345;BME280;46188;52.324;8.032;2023-05-11T09:54:28;100416.84;;;14.66;100.00
60345;BME280;46188;52.324;8.032;2023-05-11T09:56:54;100416.88;;;14.65;100.00
60345;BME280;46188;52.324;8.032;2023-05-11T09:59:40;100415.09;;;14.65;100.00
60345;BME280;46188;52.324;8.032;2023-05-11T10:02:23;100417.66;;;14.74;100.00
60345;BME280;46188;52.324;8.032;2023-05-11T10:04:53;100413.28;;;14.73;100.00
60345;BME280;46188;52.324;8.032;2023-05-11T10:07:29;100415.06;;;14.71;100.00
60345;BME280;46188;52.324;8.032;2023-05-11T10:09:57;100415.97;;;14.67;100.00
60345;BME280;46188;52.324;8.032;2023-05-11T10:12:23;100416.00;;;14.61;100.00
60345;BME280;46188;52.324;8.032;2023-05-11T10:14:51;100409.81;;;14.53;100.00
60345;BME280;46188;52.324;8.032;2023-05-11T10:17:19;100424.00;;;14.52;100.00
60345;BME280;46188;52.324;8.032;2023-05-11T10:19:48;100415.19;;;14.42;100.00
60345;BME280;46188;52.324;8.032;2023-05-11T10:22:14;100416.94;;;14.48;100.00
60345;BME280;46188;52.324;8.032;2023-05-11T10:24:41;100411.59;;;14.51;100.00
60345;BME280;46188;52.324;8.032;2023-05-11T10:27:07;100404.50;;;14.56;100.00
60345;BME280;46188;52.324;8.032;2023-05-11T10:29:32;100414.22;;;14.57;100.00
60345;BME280;46188;52.324;8.032;2023-05-11T10:31:58;100412.53;;;14.45;100.00
60345;BME280;46188;52.324;8.032;2023-05-11T10:34:27;100413.41;;;14.44;100.00
60345;BME280;46188;52.324;8.032;2023-05-11T10:36:53;100405.34;;;14.64;100.00
60345;BME280;46188;52.324;8.032;2023-05-11T10:39:20;100399.06;;;14.79;100.00
60345;BME280;46188;52.324;8.032;2023-05-11T10:44:32;100398.19;;;14.82;100.00
60345;BME280;46188;52.324;8.032;2023-05-11T10:47:29;100408.78;;;14.85;100.00
60345;BME280;46188;52.324;8.032;2023-05-11T10:56:02;100406.28;;;14.54;100.00
60345;BME280;46188;52.324;8.032;2023-05-11T10:58:42;100408.91;;;14.57;100.00
60345;BME280;46188;52.324;8.032;2023-05-11T11:03:59;100401.63;;;14.94;100.00
60345;BME280;46188;52.324;8.032;2023-05-11T11:06:27;100407.59;;;15.18;100.00
60345;BME280;46188;52.324;8.032;2023-05-11T11:08:54;100404.09;;;15.16;100.00
60345;BME280;46188;52.324;8.032;2023-05-11T11:11:37;100404.84;;;15.29;100.00
60345;BME280;46188;52.324;8.032;2023-05-11T11:14:04;100400.28;;;15.43;100.00
60345;BME280;46188;52.324;8.032;2023-05-11T11:16:33;100401.72;;;15.74;100.00
60345;BME280;46188;52.324;8.032;2023-05-11T11:21:56;100407.03;;;15.74;100.00
60345;BME280;46188;52.324;8.032;2023-05-11T11:27:03;100406.19;;;15.70;100.00
60345;BME280;46188;52.324;8.032;2023-05-11T11:29:29;100404.50;;;15.63;100.00
60345;BME280;46188;52.324;8.032;2023-05-11T11:31:54;100402.66;;;15.71;100.00
60345;BME280;46188;52.324;8.032;2023-05-11T11:39:29;100413.28;;;15.69;100.00
60345;BME280;46188;52.324;8.032;2023-05-11T11:42:14;100412.47;;;15.63;100.00
60345;BME280;46188;52.324;8.032;2023-05-11T11:44:40;100412.59;;;15.50;100.00
60345;BME280;46188;52.324;8.032;2023-05-11T11:47:17;100409.19;;;15.39;100.00
60345;BME280;46188;52.324;8.032;2023-05-11T11:49:49;100407.41;;;15.40;100.00
60345;BME280;46188;52.324;8.032;2023-05-11T11:54:52;100414.53;;;15.36;100.00
60345;BME280;46188;52.324;8.032;2023-05-11T12:00:00;100405.78;;;15.23;100.00
60345;BME280;46188;52.324;8.032;2023-05-11T12:02:26;100408.47;;;15.19;100.00
60345;BME280;46188;52.324;8.032;2023-05-11T12:04:56;100415.59;;;15.13;100.00
60345;BME280;46188;52.324;8.032;2023-05-11T12:07:24;100416.56;;;15.06;100.00
60345;BME280;46188;52.324;8.032;2023-05-11T12:09:50;100417.38;;;15.16;100.00
60345;BME280;46188;52.324;8.032;2023-05-11T12:12:17;100418.28;;;15.10;100.00
60345;BME280;46188;52.324;8.032;2023-05-11T12:14:44;100412.06;;;15.16;100.00
60345;BME280;46188;52.324;8.032;2023-05-11T12:17:14;100412.88;;;15.24;100.00
60345;BME280;46188;52.324;8.032;2023-05-11T12:19:41;100420.84;;;15.23;100.00
60345;BME280;46188;52.324;8.032;2023-05-11T12:22:07;100416.25;;;15.39;100.00
60345;BME280;46188;52.324;8.032;2023-05-11T12:24:35;100412.66;;;15.46;100.00
60345;BME280;46188;52.324;8.032;2023-05-11T12:27:01;100409.75;;;15.69;100.00
60345;BME280;46188;52.324;8.032;2023-05-11T12:29:27;100400.88;;;15.70;100.00
60345;BME280;46188;52.324;8.032;2023-05-11T12:31:52;100412.47;;;15.63;100.00
60345;BME280;46188;52.324;8.032;2023-05-11T12:34:21;100405.41;;;15.59;100.00
60345;BME280;46188;52.324;8.032;2023-05-11T12:36:48;100410.91;;;15.43;100.00
60345;BME280;46188;52.324;8.032;2023-05-11T12:39:22;100413.53;;;15.45;100.00
60345;BME280;46188;52.324;8.032;2023-05-11T12:41:48;100403.16;;;15.19;100.00
60345;BME280;46188;52.324;8.032;2023-05-11T12:44:15;100404.16;;;15.08;100.00
60345;BME280;46188;52.324;8.032;2023-05-11T12:46:42;100403.22;;;15.12;100.00
60345;BME280;46188;52.324;8.032;2023-05-11T12:49:08;100402.97;;;15.40;100.00
60345;BME280;46188;52.324;8.032;2023-05-11T12:51:44;100401.72;;;15.74;100.00
60345;BME280;46188;52.324;8.032;2023-05-11T12:54:10;100406.78;;;15.97;100.00
60345;BME280;46188;52.324;8.032;2023-05-11T12:56:46;100404.84;;;16.13;100.00
60345;BME280;46188;52.324;8.032;2023-05-11T13:02:10;100397.91;;;16.01;100.00
60345;BME280;46188;52.324;8.032;2023-05-11T13:04:38;100391.16;;;15.71;100.00
60345;BME280;46188;52.324;8.032;2023-05-11T13:07:03;100393.06;;;15.58;100.00
60345;BME280;46188;52.324;8.032;2023-05-11T13:09:29;100389.56;;;15.54;100.00
60345;BME280;46188;52.324;8.032;2023-05-11T13:12:11;100387.66;;;15.64;100.00
60345;BME280;46188;52.324;8.032;2023-05-11T13:14:37;100390.13;;;15.85;100.00
60345;BME280;46188;52.324;8.032;2023-05-11T13:17:03;100390.47;;;16.26;100.00